sensor_id;sensor_type;location;lat;lon;timestamp;temperature;humidity
28608;DHT22;15802;45.654;13.804;2022-09-09T00:00:36;21.00;99.90
28608;DHT22;15802;45.654;13.804;2022-09-09T00:03:07;21.00;99.90
28608;DHT22;15802;45.654;13.804;2022-09-09T00:05:48;21.10;99.90
28608;DHT22;15802;45.654;13.804;2022-09-09T00:08:19;21.00;99.90
28608;DHT22;15802;45.654;13.804;2022-09-09T00:10:46;21.10;99.90
28608;DHT22;15802;45.654;13.804;2022-09-09T00:13:19;21.10;99.90
28608;DHT22;15802;45.654;13.804;2022-09-09T00:15:54;21.10;99.90
28608;DHT22;15802;45.654;13.804;2022-09-09T00:18:23;21.10;99.90
28608;DHT22;15802;45.654;13.804;2022-09-09T00:20:54;21.00;99.90
28608;DHT22;15802;45.654;13.804;2022-09-09T00:23:25;20.90;99.90
28608;DHT22;15802;45.654;13.804;2022-09-09T00:25:58;21.00;99.90
28608;DHT22;15802;45.654;13.804;2022-09-09T00:28:25;21.10;99.90
28608;DHT22;15802;45.654;13.804;2022-09-09T00:30:52;21.20;99.90
28608;DHT22;15802;45.654;13.804;2022-09-09T00:33:20;21.10;99.90
28608;DHT22;15802;45.654;13.804;2022-09-09T00:35:48;21.20;99.90
28608;DHT22;15802;45.654;13.804;2022-09-09T00:38:15;21.10;99.90
28608;DHT22;15802;45.654;13.804;2022-09-09T00:40:50;21.20;99.90
28608;DHT22;15802;45.654;13.804;2022-09-09T00:43:33;21.20;99.90
28608;DHT22;15802;45.654;13.804;2022-09-09T00:48:55;21.20;99.90
28608;DHT22;15802;45.654;13.804;2022-09-09T00:51:29;21.20;99.90
28608;DHT22;15802;45.654;13.804;2022-09-09T00:54:05;21.20;99.90
28608;DHT22;15802;45.654;13.804;2022-09-09T00:56:35;21.20;99.90
28608;DHT22;15802;45.654;13.804;2022-09-09T00:59:16;21.20;99.90
28608;DHT22;15802;45.654;13.804;2022-09-09T01:01:42;21.20;99.90
28608;DHT22;15802;45.654;13.804;2022-09-09T01:04:09;21.20;99.90
28608;DHT22;15802;45.654;13.804;2022-09-09T01:06:41;21.20;99.90
28608;DHT22;15802;45.654;13.804;2022-09-09T01:09:12;21.20;99.90
28608;DHT22;15802;45.654;13.804;2022-09-09T01:11:51;21.20;99.90
28608;DHT22;15802;45.654;13.804;2022-09-09T01:14:38;21.20;99.90
28608;DHT22;15802;45.654;13.804;2022-09-09T01:19:54;21.10;99.90
28608;DHT22;15802;45.654;13.804;2022-09-09T01:25:10;21.10;99.90
28608;DHT22;15802;45.654;13.804;2022-09-09T01:27:39;21.10;99.90
28608;DHT22;15802;45.654;13.804;2022-09-09T01:30:08;21.10;99.90
28608;DHT22;15802;45.654;13.804;2022-09-09T01:32:52;21.10;99.90
28608;DHT22;15802;45.654;13.804;2022-09-09T01:35:37;21.10;99.90
28608;DHT22;15802;45.654;13.804;2022-09-09T01:38:05;21.10;99.90
28608;DHT22;15802;45.654;13.804;2022-09-09T01:40:31;21.10;99.90
28608;DHT22;15802;45.654;13.804;2022-09-09T01:42:57;21.10;99.90
28608;DHT22;15802;45.654;13.804;2022-09-09T01:45:23;21.00;99.90
28608;DHT22;15802;45.654;13.804;2022-09-09T01:47:49;21.10;99.90
28608;DHT22;15802;45.654;13.804;2022-09-09T01:50:15;21.00;99.90
28608;DHT22;15802;45.654;13.804;2022-09-09T01:52:42;21.00;99.90
28608;DHT22;15802;45.654;13.804;2022-09-09T01:55:08;21.00;99.90
28608;DHT22;15802;45.654;13.804;2022-09-09T01:57:56;21.00;99.90
28608;DHT22;15802;45.654;13.804;2022-09-09T02:00:22;21.10;99.90
28608;DHT22;15802;45.654;13.804;2022-09-09T02:02:57;21.10;99.90
28608;DHT22;15802;45.654;13.804;2022-09-09T02:05:36;21.10;99.90
28608;DHT22;15802;45.654;13.804;2022-09-09T02:08:07;21.10;99.90
28608;DHT22;15802;45.654;13.804;2022-09-09T02:10:36;21.20;99.90
28608;DHT22;15802;45.654;13.804;2022-09-09T02:13:04;21.30;99.90
28608;DHT22;15802;45.654;13.804;2022-09-09T02:15:33;21.30;99.90
28608;DHT22;15802;45.654;13.804;2022-09-09T02:17:59;21.30;99.90
28608;DHT22;15802;45.654;13.804;2022-09-09T02:20:27;21.30;99.90
28608;DHT22;15802;45.654;13.804;2022-09-09T02:22:55;21.30;99.90
28608;DHT22;15802;45.654;13.804;2022-09-09T02:25:22;21.30;99.90
28608;DHT22;15802;45.654;13.804;2022-09-09T02:27:49;21.30;99.90
28608;DHT22;15802;45.654;13.804;2022-09-09T02:30:16;21.30;99.90
28608;DHT22;15802;45.654;13.804;2022-09-09T02:32:42;21.30;99.90
28608;DHT22;15802;45.654;13.804;2022-09-09T02:35:08;21.30;99.90
28608;DHT22;15802;45.654;13.804;2022-09-09T02:37:36;21.30;99.90
28608;DHT22;15802;45.654;13.804;2022-09-09T02:40:03;21.30;99.90
28608;DHT22;15802;45.654;13.804;2022-09-09T02:42:29;21.30;99.90
28608;DHT22;15802;45.654;13.804;2022-09-09T02:44:55;21.30;99.90
28608;DHT22;15802;45.654;13.804;2022-09-09T02:47:26;21.30;99.90
28608;DHT22;15802;45.654;13.804;2022-09-09T02:50:15;21.40;99.90
28608;DHT22;15802;45.654;13.804;2022-09-09T02:55:29;21.40;99.90
28608;DHT22;15802;45.654;13.804;2022-09-09T02:57:57;21.50;99.90
28608;DHT22;15802;45.654;13.804;2022-09-09T03:00:24;21.50;99.90
28608;DHT22;15802;45.654;13.804;2022-09-09T03:02:50;21.50;99.90
28608;DHT22;15802;45.654;13.804;2022-09-09T03:05:16;21.50;99.90
28608;DHT22;15802;45.654;13.804;2022-09-09T03:07:42;21.50;99.90
28608;DHT22;15802;45.654;13.804;2022-09-09T03:10:07;21.40;99.90
28608;DHT22;15802;45.654;13.804;2022-09-09T03:12:33;21.40;99.90
28608;DHT22;15802;45.654;13.804;2022-09-09T03:14:59;21.30;99.90
28608;DHT22;15802;45.654;13.804;2022-09-09T03:17:24;21.30;99.90
28608;DHT22;15802;45.654;13.804;2022-09-09T03:19:50;21.30;99.90
28608;DHT22;15802;45.654;13.804;2022-09-09T03:22:17;21.30;99.90
28608;DHT22;15802;45.654;13.804;2022-09-09T03:24:43;21.30;99.90
28608;DHT22;15802;45.654;13.804;2022-09-09T03:27:08;21.20;99.90
28608;DHT22;15802;45.654;13.804;2022-09-09T03:29:34;21.20;99.90
28608;DHT22;15802;45.654;13.804;2022-09-09T03:32:00;21.20;99.90
28608;DHT22;15802;45.654;13.804;2022-09-09T03:34:25;21.10;99.90
28608;DHT22;15802;45.654;13.804;2022-09-09T03:36:51;21.10;99.90
28608;DHT22;15802;45.654;13.804;2022-09-09T03:39:16;21.10;99.90
28608;DHT22;15802;45.654;13.804;2022-09-09T03:41:42;21.10;99.90
28608;DHT22;15802;45.654;13.804;2022-09-09T03:44:11;21.10;99.90
28608;DHT22;15802;45.654;13.804;2022-09-09T03:46:37;21.10;99.90
28608;DHT22;15802;45.654;13.804;2022-09-09T03:49:03;21.20;99.90
28608;DHT22;15802;45.654;13.804;2022-09-09T03:51:29;21.10;99.90
28608;DHT22;15802;45.654;13.804;2022-09-09T03:53:55;21.10;99.90
28608;DHT22;15802;45.654;13.804;2022-09-09T03:56:23;21.10;99.90
28608;DHT22;15802;45.654;13.804;2022-09-09T03:58:49;21.10;99.90
28608;DHT22;15802;45.654;13.804;2022-09-09T04:01:14;21.10;99.90
28608;DHT22;15802;45.654;13.804;2022-09-09T04:03:41;21.10;99.90
28608;DHT22;15802;45.654;13.804;2022-09-09T04:06:09;21.00;99.90
28608;DHT22;15802;45.654;13.804;2022-09-09T04:08:36;21.10;99.90
28608;DHT22;15802;45.654;13.804;2022-09-09T04:11:02;21.10;99.90
28608;DHT22;15802;45.654;13.804;2022-09-09T04:13:30;21.10;99.90
28608;DHT22;15802;45.654;13.804;2022-09-09T04:15:57;21.10;99.90
28608;DHT22;15802;45.654;13.804;2022-09-09T04:18:23;21.10;99.90
28608;DHT22;15802;45.654;13.804;2022-09-09T04:20:50;21.10;99.90
28608;DHT22;15802;45.654;13.804;2022-09-09T04:23:16;21.10;99.90
28608;DHT22;15802;45.654;13.804;2022-09-09T04:25:44;21.10;99.90
28608;DHT22;15802;45.654;13.804;2022-09-09T04:28:10;21.00;99.90
28608;DHT22;15802;45.654;13.804;2022-09-09T04:30:35;21.00;99.90
28608;DHT22;15802;45.654;13.804;2022-09-09T04:33:01;21.00;99.90
28608;DHT22;15802;45.654;13.804;2022-09-09T04:35:26;20.90;99.90
28608;DHT22;15802;45.654;13.804;2022-09-09T04:37:52;21.00;99.90
28608;DHT22;15802;45.654;13.804;2022-09-09T04:40:17;21.00;99.90
28608;DHT22;15802;45.654;13.804;2022-09-09T04:42:43;21.10;99.90
28608;DHT22;15802;45.654;13.804;2022-09-09T04:45:09;21.00;99.90
28608;DHT22;15802;45.654;13.804;2022-09-09T04:47:36;21.00;99.90
28608;DHT22;15802;45.654;13.804;2022-09-09T04:50:02;21.00;99.90
28608;DHT22;15802;45.654;13.804;2022-09-09T04:52:28;21.00;99.90
28608;DHT22;15802;45.654;13.804;2022-09-09T04:54:53;21.00;99.90
28608;DHT22;15802;45.654;13.804;2022-09-09T04:57:19;21.10;99.90
28608;DHT22;15802;45.654;13.804;2022-09-09T04:59:45;21.10;99.90
28608;DHT22;15802;45.654;13.804;2022-09-09T05:02:11;21.10;99.90
28608;DHT22;15802;45.654;13.804;2022-09-09T05:04:36;21.10;99.90
28608;DHT22;15802;45.654;13.804;2022-09-09T05:07:02;21.10;99.90
28608;DHT22;15802;45.654;13.804;2022-09-09T05:09:28;21.10;99.90
28608;DHT22;15802;45.654;13.804;2022-09-09T05:11:54;21.10;99.90
28608;DHT22;15802;45.654;13.804;2022-09-09T05:14:20;21.20;99.90
28608;DHT22;15802;45.654;13.804;2022-09-09T05:16:45;21.30;99.90
28608;DHT22;15802;45.654;13.804;2022-09-09T05:19:12;21.30;99.90
28608;DHT22;15802;45.654;13.804;2022-09-09T05:21:38;21.30;99.90
28608;DHT22;15802;45.654;13.804;2022-09-09T05:24:03;21.30;99.90
28608;DHT22;15802;45.654;13.804;2022-09-09T05:26:29;21.30;99.90
28608;DHT22;15802;45.654;13.804;2022-09-09T05:28:55;21.40;99.90
28608;DHT22;15802;45.654;13.804;2022-09-09T05:31:20;21.40;99.90
28608;DHT22;15802;45.654;13.804;2022-09-09T05:33:47;21.50;99.90
28608;DHT22;15802;45.654;13.804;2022-09-09T05:36:14;21.50;99.90
28608;DHT22;15802;45.654;13.804;2022-09-09T05:38:40;21.50;99.90
28608;DHT22;15802;45.654;13.804;2022-09-09T05:41:06;21.50;99.90
28608;DHT22;15802;45.654;13.804;2022-09-09T05:43:32;21.50;99.90
28608;DHT22;15802;45.654;13.804;2022-09-09T05:45:59;21.50;99.90
28608;DHT22;15802;45.654;13.804;2022-09-09T05:48:27;21.50;99.90
28608;DHT22;15802;45.654;13.804;2022-09-09T05:50:53;21.50;99.90
28608;DHT22;15802;45.654;13.804;2022-09-09T05:53:19;21.50;99.90
28608;DHT22;15802;45.654;13.804;2022-09-09T05:55:45;21.60;99.90
28608;DHT22;15802;45.654;13.804;2022-09-09T05:58:11;21.60;99.90
28608;DHT22;15802;45.654;13.804;2022-09-09T06:00:46;21.70;99.90
28608;DHT22;15802;45.654;13.804;2022-09-09T06:03:13;21.70;99.90
28608;DHT22;15802;45.654;13.804;2022-09-09T06:05:39;21.70;99.90
28608;DHT22;15802;45.654;13.804;2022-09-09T06:08:04;21.70;99.90
28608;DHT22;15802;45.654;13.804;2022-09-09T06:10:30;21.70;99.90
28608;DHT22;15802;45.654;13.804;2022-09-09T06:12:55;21.80;99.90
28608;DHT22;15802;45.654;13.804;2022-09-09T06:15:21;21.80;99.90
28608;DHT22;15802;45.654;13.804;2022-09-09T06:17:47;21.90;99.90
28608;DHT22;15802;45.654;13.804;2022-09-09T06:20:12;21.90;99.90
28608;DHT22;15802;45.654;13.804;2022-09-09T06:22:39;22.10;99.90
28608;DHT22;15802;45.654;13.804;2022-09-09T06:25:06;22.20;99.90
28608;DHT22;15802;45.654;13.804;2022-09-09T06:27:34;22.30;99.90
28608;DHT22;15802;45.654;13.804;2022-09-09T06:30:00;22.40;99.90
28608;DHT22;15802;45.654;13.804;2022-09-09T06:32:25;22.50;99.90
28608;DHT22;15802;45.654;13.804;2022-09-09T06:34:52;22.50;99.90
28608;DHT22;15802;45.654;13.804;2022-09-09T06:37:17;22.50;99.90
28608;DHT22;15802;45.654;13.804;2022-09-09T06:39:44;22.50;99.90
28608;DHT22;15802;45.654;13.804;2022-09-09T06:42:09;22.50;99.90
28608;DHT22;15802;45.654;13.804;2022-09-09T06:44:35;22.50;99.90
28608;DHT22;15802;45.654;13.804;2022-09-09T06:47:01;22.50;99.90
28608;DHT22;15802;45.654;13.804;2022-09-09T06:49:27;22.50;99.90
28608;DHT22;15802;45.654;13.804;2022-09-09T06:51:52;22.50;99.90
28608;DHT22;15802;45.654;13.804;2022-09-09T06:54:18;22.60;99.90
28608;DHT22;15802;45.654;13.804;2022-09-09T06:56:45;22.70;99.90
28608;DHT22;15802;45.654;13.804;2022-09-09T06:59:11;22.80;99.90
28608;DHT22;15802;45.654;13.804;2022-09-09T07:01:38;22.90;99.90
28608;DHT22;15802;45.654;13.804;2022-09-09T07:04:06;23.00;99.90
28608;DHT22;15802;45.654;13.804;2022-09-09T07:06:34;23.10;99.90
28608;DHT22;15802;45.654;13.804;2022-09-09T07:09:01;23.20;99.90
28608;DHT22;15802;45.654;13.804;2022-09-09T07:11:30;23.30;99.90
28608;DHT22;15802;45.654;13.804;2022-09-09T07:13:57;23.30;99.90
28608;DHT22;15802;45.654;13.804;2022-09-09T07:16:23;23.40;99.90
28608;DHT22;15802;45.654;13.804;2022-09-09T07:18:50;23.40;99.90
28608;DHT22;15802;45.654;13.804;2022-09-09T07:21:15;23.50;99.90
28608;DHT22;15802;45.654;13.804;2022-09-09T07:23:41;23.60;99.90
28608;DHT22;15802;45.654;13.804;2022-09-09T07:26:08;23.70;99.90
28608;DHT22;15802;45.654;13.804;2022-09-09T07:28:34;23.90;99.90
28608;DHT22;15802;45.654;13.804;2022-09-09T07:31:01;24.10;99.90
28608;DHT22;15802;45.654;13.804;2022-09-09T07:33:28;24.30;99.90
28608;DHT22;15802;45.654;13.804;2022-09-09T07:36:02;24.40;99.90
28608;DHT22;15802;45.654;13.804;2022-09-09T07:38:28;24.50;99.90
28608;DHT22;15802;45.654;13.804;2022-09-09T07:41:02;24.50;99.90
28608;DHT22;15802;45.654;13.804;2022-09-09T07:43:27;24.50;99.90
28608;DHT22;15802;45.654;13.804;2022-09-09T07:46:00;24.50;99.90
28608;DHT22;15802;45.654;13.804;2022-09-09T07:48:27;24.50;99.90
28608;DHT22;15802;45.654;13.804;2022-09-09T07:51:02;24.50;99.90
28608;DHT22;15802;45.654;13.804;2022-09-09T07:53:28;24.50;99.90
28608;DHT22;15802;45.654;13.804;2022-09-09T07:55:53;24.50;99.90
28608;DHT22;15802;45.654;13.804;2022-09-09T07:58:20;24.60;99.90
28608;DHT22;15802;45.654;13.804;2022-09-09T08:00:46;24.70;99.90
28608;DHT22;15802;45.654;13.804;2022-09-09T08:03:12;24.90;99.90
28608;DHT22;15802;45.654;13.804;2022-09-09T08:05:37;25.00;99.90
28608;DHT22;15802;45.654;13.804;2022-09-09T08:08:23;25.00;99.90
28608;DHT22;15802;45.654;13.804;2022-09-09T08:10:49;25.00;99.90
28608;DHT22;15802;45.654;13.804;2022-09-09T08:13:14;25.10;99.90
28608;DHT22;15802;45.654;13.804;2022-09-09T08:15:40;25.00;99.90
28608;DHT22;15802;45.654;13.804;2022-09-09T08:18:09;25.00;99.90
28608;DHT22;15802;45.654;13.804;2022-09-09T08:20:36;24.90;99.90
28608;DHT22;15802;45.654;13.804;2022-09-09T08:23:01;24.80;99.90
28608;DHT22;15802;45.654;13.804;2022-09-09T08:25:27;24.70;99.90
28608;DHT22;15802;45.654;13.804;2022-09-09T08:27:54;24.80;99.90
28608;DHT22;15802;45.654;13.804;2022-09-09T08:30:19;24.80;99.90
28608;DHT22;15802;45.654;13.804;2022-09-09T08:32:45;24.70;99.90
28608;DHT22;15802;45.654;13.804;2022-09-09T08:35:10;24.70;99.90
28608;DHT22;15802;45.654;13.804;2022-09-09T08:37:36;24.70;99.90
28608;DHT22;15802;45.654;13.804;2022-09-09T08:40:02;24.80;99.90
28608;DHT22;15802;45.654;13.804;2022-09-09T08:48:25;24.80;99.90
28608;DHT22;15802;45.654;13.804;2022-09-09T08:50:48;24.90;99.90
28608;DHT22;15802;45.654;13.804;2022-09-09T08:53:16;25.10;99.90
28608;DHT22;15802;45.654;13.804;2022-09-09T08:55:45;25.20;99.90
28608;DHT22;15802;45.654;13.804;2022-09-09T08:58:14;25.20;99.90
28608;DHT22;15802;45.654;13.804;2022-09-09T09:06:32;25.30;99.90
28608;DHT22;15802;45.654;13.804;2022-09-09T09:09:02;25.20;99.90
28608;DHT22;15802;45.654;13.804;2022-09-09T09:11:35;25.10;99.90
28608;DHT22;15802;45.654;13.804;2022-09-09T09:14:03;25.10;99.90
28608;DHT22;15802;45.654;13.804;2022-09-09T09:16:31;25.00;99.90
28608;DHT22;15802;45.654;13.804;2022-09-09T09:18:58;24.90;99.90
28608;DHT22;15802;45.654;13.804;2022-09-09T09:21:34;24.80;99.90
28608;DHT22;15802;45.654;13.804;2022-09-09T09:24:02;24.70;99.90
28608;DHT22;15802;45.654;13.804;2022-09-09T09:26:32;24.70;99.90
28608;DHT22;15802;45.654;13.804;2022-09-09T09:28:58;24.60;99.90
28608;DHT22;15802;45.654;13.804;2022-09-09T09:31:24;24.50;99.90
28608;DHT22;15802;45.654;13.804;2022-09-09T09:33:53;24.30;99.90
28608;DHT22;15802;45.654;13.804;2022-09-09T09:36:19;23.90;99.90
28608;DHT22;15802;45.654;13.804;2022-09-09T09:39:02;23.40;99.90
28608;DHT22;15802;45.654;13.804;2022-09-09T09:41:29;22.80;99.90
28608;DHT22;15802;45.654;13.804;2022-09-09T09:43:55;21.80;99.90
28608;DHT22;15802;45.654;13.804;2022-09-09T09:46:22;20.60;99.90
28608;DHT22;15802;45.654;13.804;2022-09-09T09:48:57;19.40;99.90
28608;DHT22;15802;45.654;13.804;2022-09-09T09:51:22;18.40;99.90
28608;DHT22;15802;45.654;13.804;2022-09-09T09:53:49;18.00;99.90
28608;DHT22;15802;45.654;13.804;2022-09-09T09:56:14;17.80;99.90
28608;DHT22;15802;45.654;13.804;2022-09-09T09:58:49;17.70;99.90
28608;DHT22;15802;45.654;13.804;2022-09-09T10:01:20;17.80;99.90
28608;DHT22;15802;45.654;13.804;2022-09-09T10:03:51;17.80;99.90
28608;DHT22;15802;45.654;13.804;2022-09-09T10:06:17;17.90;99.90
28608;DHT22;15802;45.654;13.804;2022-09-09T10:08:44;17.90;99.90
28608;DHT22;15802;45.654;13.804;2022-09-09T10:11:19;18.00;99.90
28608;DHT22;15802;45.654;13.804;2022-09-09T10:14:30;18.10;99.90
28608;DHT22;15802;45.654;13.804;2022-09-09T10:19:41;18.40;99.90
28608;DHT22;15802;45.654;13.804;2022-09-09T10:22:15;18.60;99.90
28608;DHT22;15802;45.654;13.804;2022-09-09T10:24:52;18.70;99.90
28608;DHT22;15802;45.654;13.804;2022-09-09T10:27:24;18.80;99.90
28608;DHT22;15802;45.654;13.804;2022-09-09T10:29:59;18.80;99.90
28608;DHT22;15802;45.654;13.804;2022-09-09T10:32:32;18.90;99.90
28608;DHT22;15802;45.654;13.804;2022-09-09T10:35:09;19.00;99.90
28608;DHT22;15802;45.654;13.804;2022-09-09T10:37:51;19.10;99.90
28608;DHT22;15802;45.654;13.804;2022-09-09T10:40:23;19.20;99.90
28608;DHT22;15802;45.654;13.804;2022-09-09T10:42:52;19.30;99.90
28608;DHT22;15802;45.654;13.804;2022-09-09T10:45:21;19.40;99.90
28608;DHT22;15802;45.654;13.804;2022-09-09T10:48:00;19.60;99.90
28608;DHT22;15802;45.654;13.804;2022-09-09T10:50:36;19.70;99.90
28608;DHT22;15802;45.654;13.804;2022-09-09T10:53:10;20.00;99.90
28608;DHT22;15802;45.654;13.804;2022-09-09T10:55:43;20.00;99.90
28608;DHT22;15802;45.654;13.804;2022-09-09T10:58:10;20.10;99.90
28608;DHT22;15802;45.654;13.804;2022-09-09T11:00:38;20.20;99.90
28608;DHT22;15802;45.654;13.804;2022-09-09T11:03:05;20.20;99.90
28608;DHT22;15802;45.654;13.804;2022-09-09T11:05:36;20.30;99.90
28608;DHT22;15802;45.654;13.804;2022-09-09T11:08:20;20.50;99.90
28608;DHT22;15802;45.654;13.804;2022-09-09T11:16:22;21.20;99.90
28608;DHT22;15802;45.654;13.804;2022-09-09T11:18:50;21.30;99.90
28608;DHT22;15802;45.654;13.804;2022-09-09T11:21:29;21.40;99.90
28608;DHT22;15802;45.654;13.804;2022-09-09T11:23:58;21.50;99.90
28608;DHT22;15802;45.654;13.804;2022-09-09T11:26:28;21.60;99.90
28608;DHT22;15802;45.654;13.804;2022-09-09T11:29:02;21.70;99.90
28608;DHT22;15802;45.654;13.804;2022-09-09T11:31:35;21.80;99.90
28608;DHT22;15802;45.654;13.804;2022-09-09T11:34:08;21.90;99.90
28608;DHT22;15802;45.654;13.804;2022-09-09T11:36:43;22.00;99.90
28608;DHT22;15802;45.654;13.804;2022-09-09T11:42:06;22.10;99.90
28608;DHT22;15802;45.654;13.804;2022-09-09T11:44:32;22.20;99.90
28608;DHT22;15802;45.654;13.804;2022-09-09T11:46:57;22.30;99.90
28608;DHT22;15802;45.654;13.804;2022-09-09T11:49:28;22.30;99.90
28608;DHT22;15802;45.654;13.804;2022-09-09T11:51:54;22.30;99.90
28608;DHT22;15802;45.654;13.804;2022-09-09T11:54:28;22.30;99.90
28608;DHT22;15802;45.654;13.804;2022-09-09T11:56:55;22.30;99.90
28608;DHT22;15802;45.654;13.804;2022-09-09T11:59:25;22.30;99.90
28608;DHT22;15802;45.654;13.804;2022-09-09T12:01:56;22.40;99.90
28608;DHT22;15802;45.654;13.804;2022-09-09T12:04:28;22.40;99.90
28608;DHT22;15802;45.654;13.804;2022-09-09T12:06:56;22.40;99.90
28608;DHT22;15802;45.654;13.804;2022-09-09T12:09:31;22.40;99.90
28608;DHT22;15802;45.654;13.804;2022-09-09T12:12:06;22.60;99.90
28608;DHT22;15802;45.654;13.804;2022-09-09T12:14:37;22.80;99.90
28608;DHT22;15802;45.654;13.804;2022-09-09T12:17:17;22.90;99.90
28608;DHT22;15802;45.654;13.804;2022-09-09T12:19:44;23.10;99.90
28608;DHT22;15802;45.654;13.804;2022-09-09T12:24:59;23.50;99.90
28608;DHT22;15802;45.654;13.804;2022-09-09T12:27:33;23.50;99.90
28608;DHT22;15802;45.654;13.804;2022-09-09T12:30:03;23.70;99.90
28608;DHT22;15802;45.654;13.804;2022-09-09T12:32:29;23.90;99.90
28608;DHT22;15802;45.654;13.804;2022-09-09T12:34:56;24.20;99.90
28608;DHT22;15802;45.654;13.804;2022-09-09T12:37:30;24.30;99.90
28608;DHT22;15802;45.654;13.804;2022-09-09T12:39:58;24.40;99.90
28608;DHT22;15802;45.654;13.804;2022-09-09T12:42:24;24.50;99.90
28608;DHT22;15802;45.654;13.804;2022-09-09T12:44:51;24.60;99.90
28608;DHT22;15802;45.654;13.804;2022-09-09T12:47:16;24.80;99.90
28608;DHT22;15802;45.654;13.804;2022-09-09T12:49:43;24.90;99.90
28608;DHT22;15802;45.654;13.804;2022-09-09T12:52:15;24.90;99.90
28608;DHT22;15802;45.654;13.804;2022-09-09T12:54:44;24.80;99.90
28608;DHT22;15802;45.654;13.804;2022-09-09T12:57:12;24.80;99.90
28608;DHT22;15802;45.654;13.804;2022-09-09T12:59:39;24.70;99.90
28608;DHT22;15802;45.654;13.804;2022-09-09T13:02:21;24.60;99.90
28608;DHT22;15802;45.654;13.804;2022-09-09T13:04:47;24.60;99.90
28608;DHT22;15802;45.654;13.804;2022-09-09T13:07:15;24.60;99.90
28608;DHT22;15802;45.654;13.804;2022-09-09T13:09:41;24.80;99.90
28608;DHT22;15802;45.654;13.804;2022-09-09T13:12:11;24.80;99.90
28608;DHT22;15802;45.654;13.804;2022-09-09T13:14:38;24.90;99.90
28608;DHT22;15802;45.654;13.804;2022-09-09T13:17:04;25.00;99.90
28608;DHT22;15802;45.654;13.804;2022-09-09T13:19:35;25.10;99.90
28608;DHT22;15802;45.654;13.804;2022-09-09T13:22:11;25.20;99.90
28608;DHT22;15802;45.654;13.804;2022-09-09T13:24:38;25.20;99.90
28608;DHT22;15802;45.654;13.804;2022-09-09T13:27:05;25.20;99.90
28608;DHT22;15802;45.654;13.804;2022-09-09T13:29:50;25.10;99.90
28608;DHT22;15802;45.654;13.804;2022-09-09T13:32:20;25.10;99.90
28608;DHT22;15802;45.654;13.804;2022-09-09T13:35:01;25.10;99.90
28608;DHT22;15802;45.654;13.804;2022-09-09T13:37:31;25.00;99.90
28608;DHT22;15802;45.654;13.804;2022-09-09T13:39:58;25.00;99.90
28608;DHT22;15802;45.654;13.804;2022-09-09T13:42:25;24.90;99.90
28608;DHT22;15802;45.654;13.804;2022-09-09T13:44:51;24.80;99.90
28608;DHT22;15802;45.654;13.804;2022-09-09T13:47:26;24.80;99.90
28608;DHT22;15802;45.654;13.804;2022-09-09T13:49:53;24.80;99.90
28608;DHT22;15802;45.654;13.804;2022-09-09T13:52:19;24.90;99.90
28608;DHT22;15802;45.654;13.804;2022-09-09T13:54:48;24.90;99.90
28608;DHT22;15802;45.654;13.804;2022-09-09T13:57:16;25.00;99.90
28608;DHT22;15802;45.654;13.804;2022-09-09T13:59:42;25.10;99.90
28608;DHT22;15802;45.654;13.804;2022-09-09T14:02:08;25.20;99.90
28608;DHT22;15802;45.654;13.804;2022-09-09T14:04:33;25.30;99.90
28608;DHT22;15802;45.654;13.804;2022-09-09T14:07:00;25.20;99.90
28608;DHT22;15802;45.654;13.804;2022-09-09T14:09:26;25.20;99.90
28608;DHT22;15802;45.654;13.804;2022-09-09T14:11:51;25.20;99.90
28608;DHT22;15802;45.654;13.804;2022-09-09T14:14:17;25.30;99.90
28608;DHT22;15802;45.654;13.804;2022-09-09T14:16:43;25.50;99.90
28608;DHT22;15802;45.654;13.804;2022-09-09T14:19:08;25.50;99.90
28608;DHT22;15802;45.654;13.804;2022-09-09T14:21:34;25.60;99.90
28608;DHT22;15802;45.654;13.804;2022-09-09T14:24:00;25.60;99.90
28608;DHT22;15802;45.654;13.804;2022-09-09T14:26:26;25.70;99.90
28608;DHT22;15802;45.654;13.804;2022-09-09T14:28:54;25.80;99.90
28608;DHT22;15802;45.654;13.804;2022-09-09T14:31:20;25.80;99.90
28608;DHT22;15802;45.654;13.804;2022-09-09T14:33:46;25.70;99.90
28608;DHT22;15802;45.654;13.804;2022-09-09T14:36:12;25.60;99.90
28608;DHT22;15802;45.654;13.804;2022-09-09T14:38:38;25.60;99.90
28608;DHT22;15802;45.654;13.804;2022-09-09T14:41:06;25.70;99.90
28608;DHT22;15802;45.654;13.804;2022-09-09T14:43:32;25.70;99.90
28608;DHT22;15802;45.654;13.804;2022-09-09T14:46:06;25.70;99.90
28608;DHT22;15802;45.654;13.804;2022-09-09T14:48:32;25.70;99.90
28608;DHT22;15802;45.654;13.804;2022-09-09T14:51:15;25.70;99.90
28608;DHT22;15802;45.654;13.804;2022-09-09T14:53:42;25.70;99.90
28608;DHT22;15802;45.654;13.804;2022-09-09T14:56:09;25.70;99.90
28608;DHT22;15802;45.654;13.804;2022-09-09T14:58:35;25.90;99.90
28608;DHT22;15802;45.654;13.804;2022-09-09T15:01:02;26.00;99.90
28608;DHT22;15802;45.654;13.804;2022-09-09T15:03:28;26.20;99.90
28608;DHT22;15802;45.654;13.804;2022-09-09T15:05:53;26.30;99.90
28608;DHT22;15802;45.654;13.804;2022-09-09T15:08:19;26.30;99.90
28608;DHT22;15802;45.654;13.804;2022-09-09T15:10:44;26.30;99.90
28608;DHT22;15802;45.654;13.804;2022-09-09T15:13:14;26.20;99.90
28608;DHT22;15802;45.654;13.804;2022-09-09T15:15:42;26.10;99.90
28608;DHT22;15802;45.654;13.804;2022-09-09T15:18:07;26.10;99.90
28608;DHT22;15802;45.654;13.804;2022-09-09T15:20:33;26.10;99.90
28608;DHT22;15802;45.654;13.804;2022-09-09T15:23:00;26.20;99.90
28608;DHT22;15802;45.654;13.804;2022-09-09T15:25:26;26.20;99.90
28608;DHT22;15802;45.654;13.804;2022-09-09T15:27:52;26.30;99.90
28608;DHT22;15802;45.654;13.804;2022-09-09T15:30:17;26.30;99.90
28608;DHT22;15802;45.654;13.804;2022-09-09T15:32:43;26.10;99.90
28608;DHT22;15802;45.654;13.804;2022-09-09T15:35:08;25.90;99.90
28608;DHT22;15802;45.654;13.804;2022-09-09T15:37:34;25.80;99.90
28608;DHT22;15802;45.654;13.804;2022-09-09T15:40:00;25.70;99.90
28608;DHT22;15802;45.654;13.804;2022-09-09T15:42:26;25.60;99.90
28608;DHT22;15802;45.654;13.804;2022-09-09T15:44:51;25.50;99.90
28608;DHT22;15802;45.654;13.804;2022-09-09T15:47:17;25.20;99.90
28608;DHT22;15802;45.654;13.804;2022-09-09T15:49:43;24.90;99.90
28608;DHT22;15802;45.654;13.804;2022-09-09T15:52:09;24.80;99.90
28608;DHT22;15802;45.654;13.804;2022-09-09T15:54:36;24.30;99.90
28608;DHT22;15802;45.654;13.804;2022-09-09T15:57:05;23.90;99.90
28608;DHT22;15802;45.654;13.804;2022-09-09T15:59:31;23.70;99.90